Wetterdaten: Woche 02.11.09 - 08.11.09 (KW45)
Datum Zeit Temp. Innen Temp. Aussen UV X Diff Temp. Feuchte Inne Feuchte Auss Sonnenschein Luftdruck Regen ab 0,1 Wind Sonnenschein Windben
02.11.2009 00:00 16,6 C 12,8 C 0,0 UV-I 0,0 C 72 % 96 % 0 % 999,2 hPa 2,9 l/m 1,8 km/h (1 Bft) 0,00 h 2,7 km/h (1 Bft)
02.11.2009 01:00 16,7 C 12,7 C 0,0 UV-I 0,0 C 71 % 95 % 0 % 999,3 hPa 0,4 l/m 1,3 km/h (1 Bft) 0,00 h 2,0 km/h (1 Bft)
02.11.2009 02:00 16,6 C 12,5 C 0,0 UV-I 0,0 C 71 % 95 % 0 % 999,6 hPa 0,6 l/m 2,2 km/h (1 Bft) 0,00 h 3,4 km/h (1 Bft)
02.11.2009 03:00 16,7 C 12,3 C 0,0 UV-I 0,0 C 71 % 95 % 0 % 999,4 hPa 0,3 l/m 0,2 km/h (0 Bft) 0,00 h 0,3 km/h (0 Bft)
02.11.2009 04:00 16,7 C 12,0 C 0,0 UV-I 0,0 C 71 % 95 % 0 % 999,7 hPa 1,1 l/m 1,7 km/h (1 Bft) 0,00 h 3,7 km/h (1 Bft)
02.11.2009 05:00 16,6 C 11,7 C 0,0 UV-I 0,0 C 70 % 95 % 0 % 999,9 hPa 0,0 l/m 1,0 km/h (0 Bft) 0,00 h 1,3 km/h (1 Bft)
02.11.2009 06:00 16,5 C 11,2 C 0,0 UV-I 0,0 C 69 % 94 % 0 % 1000,0 hPa 0,0 l/m 1,2 km/h (1 Bft) 0,00 h 2,5 km/h (1 Bft)
02.11.2009 07:00 16,3 C 10,5 C 0,0 UV-I 0,0 C 68 % 94 % 0 % 1000,0 hPa 0,0 l/m 1,5 km/h (1 Bft) 0,00 h 2,7 km/h (1 Bft)
02.11.2009 08:00 16,1 C 10,2 C 0,0 UV-I 0,0 C 67 % 94 % 0 % 999,9 hPa 0,0 l/m 1,4 km/h (1 Bft) 0,00 h 2,1 km/h (1 Bft)
02.11.2009 09:00 16,1 C 10,4 C 0,2 UV-I 0,1 C 67 % 94 % 2 % 1000,2 hPa 0,0 l/m 3,1 km/h (1 Bft) 0,00 h 5,1 km/h (1 Bft)
02.11.2009 10:00 16,2 C 11,0 C 0,6 UV-I 0,6 C 67 % 94 % 18 % 1000,5 hPa 0,0 l/m 3,9 km/h (1 Bft) 0,00 h 6,1 km/h (2 Bft)
02.11.2009 11:00 16,3 C 12,0 C 1,6 UV-I 2,1 C 66 % 90 % 60 % 1000,2 hPa 0,0 l/m 4,1 km/h (1 Bft) 0,17 h 6,6 km/h (2 Bft)
02.11.2009 12:00 16,4 C 12,3 C 1,0 UV-I 0,5 C 64 % 86 % 14 % 999,9 hPa 0,1 l/m 4,0 km/h (1 Bft) 0,00 h 6,1 km/h (2 Bft)
02.11.2009 13:00 16,5 C 12,0 C 0,9 UV-I 0,7 C 63 % 85 % 20 % 1000,0 hPa 0,0 l/m 2,9 km/h (1 Bft) 0,00 h 4,8 km/h (1 Bft)
02.11.2009 14:00 16,9 C 12,1 C 0,8 UV-I 0,7 C 61 % 81 % 21 % 1000,6 hPa 0,0 l/m 3,6 km/h (1 Bft) 0,00 h 5,5 km/h (1 Bft)
02.11.2009 15:00 16,9 C 12,1 C 0,5 UV-I 0,8 C 60 % 81 % 23 % 1000,6 hPa 0,0 l/m 2,2 km/h (1 Bft) 0,23 h 3,1 km/h (1 Bft)
02.11.2009 16:00 16,6 C 11,3 C 0,0 UV-I 0,0 C 59 % 81 % 0 % 1000,6 hPa 0,0 l/m 2,3 km/h (1 Bft) 0,00 h 2,7 km/h (1 Bft)
02.11.2009 17:00 16,4 C 10,4 C 0,0 UV-I 0,0 C 59 % 83 % 0 % 1000,6 hPa 0,0 l/m 0,4 km/h (0 Bft) 0,00 h 0,6 km/h (0 Bft)
02.11.2009 18:00 16,1 C 9,5 C 0,0 UV-I 0,0 C 59 % 85 % 0 % 1001,1 hPa 0,0 l/m 0,3 km/h (0 Bft) 0,00 h 0,6 km/h (0 Bft)
02.11.2009 19:00 16,0 C 8,9 C 0,0 UV-I 0,0 C 59 % 87 % 0 % 1001,3 hPa 0,0 l/m 0,3 km/h (0 Bft) 0,00 h 0,6 km/h (0 Bft)
02.11.2009 20:00 15,9 C 8,8 C 0,0 UV-I 0,0 C 58 % 87 % 0 % 1001,4 hPa 0,0 l/m 0,6 km/h (0 Bft) 0,00 h 1,3 km/h (1 Bft)
02.11.2009 21:00 15,5 C 8,5 C 0,0 UV-I 0,0 C 58 % 87 % 0 % 1001,4 hPa 0,0 l/m 1,1 km/h (1 Bft) 0,00 h 2,2 km/h (1 Bft)
02.11.2009 22:00 15,1 C 7,9 C 0,0 UV-I 0,0 C 59 % 88 % 0 % 1001,2 hPa 0,0 l/m 1,3 km/h (1 Bft) 0,00 h 2,5 km/h (1 Bft)
02.11.2009 23:00 14,9 C 7,3 C 0,0 UV-I 0,0 C 58 % 89 % 0 % 1000,6 hPa 0,0 l/m 1,3 km/h (1 Bft) 0,00 h 2,8 km/h (1 Bft)
03.11.2009 00:00 14,8 C 6,6 C 0,0 UV-I 0,0 C 58 % 90 % 0 % 1000,4 hPa 0,0 l/m 0,8 km/h (0 Bft) 0,00 h 1,5 km/h (1 Bft)
03.11.2009 01:00 14,6 C 6,1 C 0,0 UV-I 0,0 C 58 % 91 % 0 % 1000,1 hPa 0,0 l/m 0,3 km/h (0 Bft) 0,00 h 0,0 km/h (0 Bft)
03.11.2009 02:00 14,5 C 5,5 C 0,0 UV-I 0,0 C 57 % 92 % 0 % 999,8 hPa 0,0 l/m 0,2 km/h (0 Bft) 0,00 h 0,8 km/h (0 Bft)
03.11.2009 03:00 14,4 C 5,5 C 0,0 UV-I 0,0 C 57 % 93 % 0 % 999,8 hPa 0,0 l/m 0,8 km/h (0 Bft) 0,00 h 1,4 km/h (1 Bft)
03.11.2009 04:00 14,2 C 5,1 C 0,0 UV-I 0,0 C 57 % 93 % 0 % 999,1 hPa 0,0 l/m 0,3 km/h (0 Bft) 0,00 h 0,4 km/h (0 Bft)
03.11.2009 05:00 14,2 C 4,8 C 0,0 UV-I 0,0 C 57 % 93 % 0 % 999,0 hPa 0,0 l/m 0,3 km/h (0 Bft) 0,00 h 0,7 km/h (0 Bft)
03.11.2009 06:00 14,2 C 4,5 C 0,0 UV-I 0,0 C 57 % 93 % 0 % 998,5 hPa 0,0 l/m 0,2 km/h (0 Bft) 0,00 h 0,3 km/h (0 Bft)
03.11.2009 07:00 14,0 C 3,7 C 0,0 UV-I 0,0 C 56 % 94 % 0 % 998,2 hPa 0,0 l/m 0,9 km/h (0 Bft) 0,00 h 1,7 km/h (1 Bft)
03.11.2009 08:00 13,8 C 3,7 C 0,1 UV-I 0,0 C 56 % 94 % 0 % 998,0 hPa 0,0 l/m 1,1 km/h (1 Bft) 0,00 h 1,7 km/h (1 Bft)
03.11.2009 09:00 14,0 C 4,7 C 0,6 UV-I 5,2 C 56 % 95 % 93 % 998,0 hPa 0,0 l/m 2,1 km/h (1 Bft) 0,83 h 3,9 km/h (1 Bft)
03.11.2009 10:00 14,2 C 7,5 C 1,1 UV-I 6,2 C 57 % 93 % 100 % 997,4 hPa 0,0 l/m 5,2 km/h (1 Bft) 0,50 h 6,6 km/h (2 Bft)
03.11.2009 11:00 14,7 C 10,2 C 2,9 UV-I 5,1 C 57 % 85 % 100 % 997,0 hPa 0,0 l/m 6,7 km/h (2 Bft) 1,00 h 9,4 km/h (2 Bft)
03.11.2009 12:00 15,6 C 12,1 C 2,7 UV-I 3,7 C 56 % 74 % 94 % 995,9 hPa 0,0 l/m 9,5 km/h (2 Bft) 0,80 h 15,9 km/h (3 Bft)
03.11.2009 13:00 16,0 C 13,0 C 2,0 UV-I 1,9 C 53 % 66 % 56 % 995,0 hPa 0,0 l/m 9,6 km/h (2 Bft) 0,40 h 13,5 km/h (3 Bft)
03.11.2009 14:00 16,3 C 12,4 C 1,6 UV-I 0,3 C 51 % 66 % 8 % 994,4 hPa 0,0 l/m 10,5 km/h (2 Bft) 0,00 h 15,0 km/h (3 Bft)
03.11.2009 15:00 16,3 C 11,7 C 0,4 UV-I 0,0 C 51 % 69 % 0 % 992,7 hPa 0,0 l/m 11,0 km/h (2 Bft) 0,00 h 14,6 km/h (3 Bft)
03.11.2009 16:00 15,7 C 10,9 C 0,0 UV-I 0,0 C 52 % 73 % 0 % 991,5 hPa 0,0 l/m 12,2 km/h (2 Bft) 0,00 h 17,7 km/h (3 Bft)
03.11.2009 17:00 15,4 C 10,2 C 0,0 UV-I 0,0 C 54 % 77 % 0 % 990,5 hPa 0,0 l/m 12,0 km/h (2 Bft) 0,00 h 15,8 km/h (3 Bft)
03.11.2009 18:00 15,2 C 9,8 C 0,0 UV-I 0,0 C 56 % 81 % 0 % 989,6 hPa 0,0 l/m 10,7 km/h (2 Bft) 0,00 h 14,7 km/h (3 Bft)
03.11.2009 19:00 15,2 C 9,3 C 0,0 UV-I 0,0 C 58 % 85 % 0 % 988,4 hPa 0,7 l/m 8,4 km/h (2 Bft) 0,00 h 11,7 km/h (2 Bft)
03.11.2009 20:00 15,2 C 8,8 C 0,0 UV-I 0,0 C 60 % 90 % 0 % 987,2 hPa 1,1 l/m 5,9 km/h (2 Bft) 0,00 h 8,5 km/h (2 Bft)
03.11.2009 21:00 15,1 C 8,7 C 0,0 UV-I 0,0 C 62 % 92 % 0 % 986,1 hPa 3,4 l/m 5,4 km/h (1 Bft) 0,00 h 6,5 km/h (2 Bft)
03.11.2009 22:00 15,1 C 8,7 C 0,0 UV-I 0,0 C 63 % 93 % 0 % 984,6 hPa 3,6 l/m 6,5 km/h (2 Bft) 0,00 h 9,6 km/h (2 Bft)
03.11.2009 23:00 15,1 C 8,8 C 0,0 UV-I 0,0 C 64 % 94 % 0 % 984,1 hPa 1,2 l/m 2,8 km/h (1 Bft) 0,00 h 2,7 km/h (1 Bft)
04.11.2009 00:00 15,2 C 9,0 C 0,0 UV-I 0,0 C 64 % 94 % 0 % 983,7 hPa 2,8 l/m 0,0 km/h (0 Bft) 0,00 h 0,2 km/h (0 Bft)
04.11.2009 01:00 15,4 C 9,2 C 0,0 UV-I 0,0 C 65 % 94 % 0 % 983,0 hPa 0,2 l/m 0,8 km/h (0 Bft) 0,00 h 1,9 km/h (1 Bft)
04.11.2009 02:00 15,4 C 9,4 C 0,0 UV-I 0,0 C 65 % 95 % 0 % 982,6 hPa 0,1 l/m 0,4 km/h (0 Bft) 0,00 h 0,6 km/h (0 Bft)
04.11.2009 03:00 15,4 C 9,7 C 0,0 UV-I 0,0 C 65 % 95 % 0 % 982,4 hPa 1,3 l/m 1,4 km/h (1 Bft) 0,00 h 2,3 km/h (1 Bft)
04.11.2009 04:00 15,2 C 9,4 C 0,0 UV-I 0,0 C 65 % 94 % 0 % 982,6 hPa 0,0 l/m 2,2 km/h (1 Bft) 0,00 h 4,0 km/h (1 Bft)
04.11.2009 05:00 14,9 C 9,1 C 0,0 UV-I 0,0 C 65 % 94 % 0 % 982,6 hPa 0,0 l/m 3,4 km/h (1 Bft) 0,00 h 5,5 km/h (1 Bft)
04.11.2009 06:00 14,8 C 8,3 C 0,0 UV-I 0,0 C 64 % 94 % 0 % 983,0 hPa 0,0 l/m 0,9 km/h (0 Bft) 0,00 h 1,1 km/h (1 Bft)
04.11.2009 07:00 14,5 C 7,7 C 0,0 UV-I 0,0 C 63 % 94 % 0 % 983,3 hPa 0,0 l/m 2,3 km/h (1 Bft) 0,00 h 4,3 km/h (1 Bft)
04.11.2009 08:00 14,4 C 8,0 C 0,0 UV-I 0,0 C 63 % 93 % 0 % 984,4 hPa 0,1 l/m 3,7 km/h (1 Bft) 0,00 h 5,5 km/h (1 Bft)
04.11.2009 09:00 14,3 C 8,2 C 0,2 UV-I 0,0 C 64 % 93 % 0 % 985,1 hPa 0,2 l/m 4,3 km/h (1 Bft) 0,00 h 5,5 km/h (1 Bft)
04.11.2009 10:00 14,4 C 8,4 C 1,2 UV-I 0,3 C 63 % 92 % 8 % 985,8 hPa 0,0 l/m 5,4 km/h (1 Bft) 0,00 h 9,0 km/h (2 Bft)
04.11.2009 11:00 14,4 C 8,6 C 1,4 UV-I 0,4 C 62 % 90 % 13 % 986,4 hPa 0,1 l/m 5,5 km/h (1 Bft) 0,00 h 7,7 km/h (2 Bft)
04.11.2009 12:00 14,6 C 8,8 C 0,8 UV-I 0,6 C 61 % 89 % 16 % 986,8 hPa 0,6 l/m 5,1 km/h (1 Bft) 0,00 h 6,7 km/h (2 Bft)
04.11.2009 13:00 15,0 C 9,4 C 1,4 UV-I 1,7 C 62 % 89 % 47 % 986,8 hPa 0,0 l/m 5,5 km/h (1 Bft) 0,03 h 7,8 km/h (2 Bft)
04.11.2009 14:00 15,8 C 10,8 C 1,5 UV-I 2,6 C 59 % 81 % 66 % 989,0 hPa 0,0 l/m 5,3 km/h (1 Bft) 0,33 h 7,8 km/h (2 Bft)
04.11.2009 15:00 15,9 C 10,9 C 0,7 UV-I 1,0 C 56 % 78 % 28 % 987,9 hPa 0,0 l/m 5,1 km/h (1 Bft) 0,23 h 6,5 km/h (2 Bft)
04.11.2009 16:00 15,4 C 10,5 C 0,0 UV-I 0,0 C 56 % 78 % 0 % 987,8 hPa 0,0 l/m 5,5 km/h (1 Bft) 0,00 h 7,6 km/h (2 Bft)
04.11.2009 17:00 15,0 C 9,8 C 0,0 UV-I 0,0 C 57 % 80 % 0 % 987,5 hPa 0,0 l/m 2,8 km/h (1 Bft) 0,00 h 3,9 km/h (1 Bft)
04.11.2009 18:00 14,7 C 9,3 C 0,0 UV-I 0,0 C 58 % 82 % 0 % 988,0 hPa 0,0 l/m 4,4 km/h (1 Bft) 0,00 h 6,3 km/h (2 Bft)
04.11.2009 19:00 14,6 C 9,3 C 0,0 UV-I 0,0 C 58 % 82 % 0 % 988,0 hPa 0,0 l/m 4,9 km/h (1 Bft) 0,00 h 6,6 km/h (2 Bft)
04.11.2009 20:00 14,4 C 9,4 C 0,0 UV-I 0,0 C 58 % 82 % 0 % 988,5 hPa 0,0 l/m 5,1 km/h (1 Bft) 0,00 h 8,1 km/h (2 Bft)
04.11.2009 21:00 14,4 C 8,7 C 0,0 UV-I 0,0 C 57 % 82 % 0 % 988,7 hPa 0,0 l/m 3,6 km/h (1 Bft) 0,00 h 5,3 km/h (1 Bft)
04.11.2009 22:00 14,4 C 7,9 C 0,0 UV-I 0,0 C 57 % 85 % 0 % 988,6 hPa 0,0 l/m 2,6 km/h (1 Bft) 0,00 h 4,2 km/h (1 Bft)
04.11.2009 23:00 14,2 C 7,8 C 0,0 UV-I 0,0 C 57 % 86 % 0 % 988,7 hPa 0,0 l/m 2,8 km/h (1 Bft) 0,00 h 4,5 km/h (1 Bft)
05.11.2009 00:00 14,2 C 8,0 C 0,0 UV-I 0,0 C 57 % 86 % 0 % 988,6 hPa 0,0 l/m 3,3 km/h (1 Bft) 0,00 h 4,9 km/h (1 Bft)
05.11.2009 01:00 14,2 C 8,1 C 0,0 UV-I 0,0 C 57 % 85 % 0 % 988,6 hPa 0,0 l/m 3,5 km/h (1 Bft) 0,00 h 6,6 km/h (2 Bft)
05.11.2009 02:00 14,2 C 8,2 C 0,0 UV-I 0,0 C 59 % 88 % 0 % 988,3 hPa 0,7 l/m 4,2 km/h (1 Bft) 0,00 h 6,1 km/h (2 Bft)
05.11.2009 03:00 14,0 C 8,3 C 0,0 UV-I 0,0 C 60 % 88 % 0 % 988,2 hPa 0,1 l/m 5,8 km/h (2 Bft) 0,00 h 8,4 km/h (2 Bft)
05.11.2009 04:00 14,0 C 8,6 C 0,0 UV-I 0,0 C 60 % 86 % 0 % 988,5 hPa 0,0 l/m 6,1 km/h (2 Bft) 0,00 h 7,4 km/h (2 Bft)
05.11.2009 05:00 14,0 C 8,7 C 0,0 UV-I 0,0 C 60 % 86 % 0 % 988,6 hPa 0,0 l/m 4,8 km/h (1 Bft) 0,00 h 6,5 km/h (2 Bft)
05.11.2009 06:00 13,9 C 8,5 C 0,0 UV-I 0,0 C 60 % 87 % 0 % 989,0 hPa 1,0 l/m 4,7 km/h (1 Bft) 0,00 h 5,8 km/h (1 Bft)
05.11.2009 07:00 14,0 C 8,3 C 0,0 UV-I 0,0 C 61 % 88 % 0 % 989,6 hPa 0,0 l/m 4,2 km/h (1 Bft) 0,00 h 6,0 km/h (2 Bft)
05.11.2009 08:00 13,9 C 8,6 C 0,0 UV-I 0,0 C 61 % 87 % 0 % 990,1 hPa 0,0 l/m 5,7 km/h (1 Bft) 0,00 h 9,0 km/h (2 Bft)
05.11.2009 09:00 14,0 C 9,3 C 0,1 UV-I 0,1 C 60 % 84 % 3 % 990,4 hPa 0,0 l/m 6,9 km/h (2 Bft) 0,00 h 10,9 km/h (2 Bft)
05.11.2009 10:00 14,2 C 9,8 C 0,4 UV-I 0,1 C 59 % 82 % 3 % 990,8 hPa 0,0 l/m 7,0 km/h (2 Bft) 0,00 h 9,6 km/h (2 Bft)
05.11.2009 11:00 14,3 C 9,9 C 0,3 UV-I 0,0 C 60 % 83 % 0 % 991,4 hPa 0,2 l/m 6,7 km/h (2 Bft) 0,00 h 10,9 km/h (2 Bft)
05.11.2009 12:00 14,2 C 9,4 C 0,1 UV-I 0,0 C 61 % 85 % 0 % 991,6 hPa 0,8 l/m 7,0 km/h (2 Bft) 0,00 h 10,4 km/h (2 Bft)
05.11.2009 13:00 14,1 C 9,1 C 0,3 UV-I 0,0 C 62 % 87 % 0 % 991,9 hPa 0,2 l/m 7,0 km/h (2 Bft) 0,00 h 9,8 km/h (2 Bft)
05.11.2009 14:00 14,0 C 9,1 C 0,1 UV-I 0,0 C 63 % 88 % 0 % 992,4 hPa 0,2 l/m 6,8 km/h (2 Bft) 0,00 h 8,8 km/h (2 Bft)
05.11.2009 15:00 14,0 C 9,1 C 0,0 UV-I 0,0 C 63 % 88 % 0 % 992,8 hPa 0,1 l/m 6,1 km/h (2 Bft) 0,00 h 8,1 km/h (2 Bft)
05.11.2009 16:00 14,1 C 9,1 C 0,0 UV-I 0,0 C 63 % 87 % 0 % 993,5 hPa 0,0 l/m 6,4 km/h (2 Bft) 0,00 h 8,8 km/h (2 Bft)
05.11.2009 17:00 14,0 C 9,1 C 0,0 UV-I 0,0 C 63 % 87 % 0 % 994,5 hPa 0,0 l/m 4,7 km/h (1 Bft) 0,00 h 5,9 km/h (2 Bft)
05.11.2009 18:00 14,0 C 9,1 C 0,0 UV-I 0,0 C 63 % 87 % 0 % 995,2 hPa 0,0 l/m 4,4 km/h (1 Bft) 0,00 h 6,2 km/h (2 Bft)
05.11.2009 19:00 13,9 C 8,8 C 0,0 UV-I 0,0 C 63 % 89 % 0 % 995,9 hPa 0,2 l/m 3,6 km/h (1 Bft) 0,00 h 5,6 km/h (1 Bft)
05.11.2009 20:00 13,9 C 8,7 C 0,0 UV-I 0,0 C 63 % 89 % 0 % 996,6 hPa 0,0 l/m 3,3 km/h (1 Bft) 0,00 h 4,7 km/h (1 Bft)
05.11.2009 21:00 13,9 C 8,6 C 0,0 UV-I 0,0 C 63 % 89 % 0 % 997,1 hPa 0,0 l/m 4,4 km/h (1 Bft) 0,00 h 6,8 km/h (2 Bft)
05.11.2009 22:00 13,9 C 8,3 C 0,0 UV-I 0,0 C 63 % 90 % 0 % 997,7 hPa 0,0 l/m 4,0 km/h (1 Bft) 0,00 h 6,6 km/h (2 Bft)
05.11.2009 23:00 13,8 C 8,2 C 0,0 UV-I 0,0 C 63 % 91 % 0 % 998,1 hPa 0,0 l/m 4,9 km/h (1 Bft) 0,00 h 6,8 km/h (2 Bft)
06.11.2009 00:00 13,8 C 8,2 C 0,0 UV-I 0,0 C 63 % 91 % 0 % 998,6 hPa 0,0 l/m 2,7 km/h (1 Bft) 0,00 h 4,2 km/h (1 Bft)
06.11.2009 01:00 13,9 C 8,4 C 0,0 UV-I 0,0 C 64 % 91 % 0 % 999,1 hPa 0,0 l/m 2,7 km/h (1 Bft) 0,00 h 4,7 km/h (1 Bft)
06.11.2009 02:00 13,9 C 8,6 C 0,0 UV-I 0,0 C 64 % 92 % 0 % 999,6 hPa 0,0 l/m 3,0 km/h (1 Bft) 0,00 h 5,1 km/h (1 Bft)
06.11.2009 03:00 13,9 C 8,6 C 0,0 UV-I 0,0 C 65 % 92 % 0 % 1000,1 hPa 0,0 l/m 3,5 km/h (1 Bft) 0,00 h 6,3 km/h (2 Bft)
06.11.2009 04:00 13,9 C 8,7 C 0,0 UV-I 0,0 C 65 % 92 % 0 % 1000,8 hPa 0,0 l/m 3,2 km/h (1 Bft) 0,00 h 4,2 km/h (1 Bft)
06.11.2009 05:00 14,0 C 8,7 C 0,0 UV-I 0,0 C 65 % 92 % 0 % 1001,4 hPa 0,0 l/m 2,1 km/h (1 Bft) 0,00 h 3,5 km/h (1 Bft)
06.11.2009 06:00 13,9 C 8,6 C 0,0 UV-I 0,0 C 64 % 92 % 0 % 1001,9 hPa 0,0 l/m 1,9 km/h (1 Bft) 0,00 h 2,8 km/h (1 Bft)
06.11.2009 07:00 13,9 C 8,7 C 0,0 UV-I 0,0 C 64 % 91 % 0 % 1002,5 hPa 0,0 l/m 1,8 km/h (1 Bft) 0,00 h 3,0 km/h (1 Bft)
06.11.2009 08:00 13,9 C 8,8 C 0,0 UV-I 0,0 C 64 % 90 % 0 % 1003,1 hPa 0,0 l/m 2,5 km/h (1 Bft) 0,00 h 4,9 km/h (1 Bft)
06.11.2009 09:00 14,2 C 9,1 C 0,3 UV-I 0,2 C 63 % 89 % 7 % 1003,9 hPa 0,0 l/m 2,8 km/h (1 Bft) 0,00 h 4,3 km/h (1 Bft)
06.11.2009 10:00 14,2 C 9,7 C 0,5 UV-I 0,5 C 63 % 86 % 14 % 1004,4 hPa 0,0 l/m 4,3 km/h (1 Bft) 0,00 h 6,4 km/h (2 Bft)
06.11.2009 11:00 14,4 C 10,3 C 1,0 UV-I 0,7 C 62 % 84 % 21 % 1004,7 hPa 0,0 l/m 5,0 km/h (1 Bft) 0,00 h 6,9 km/h (2 Bft)
06.11.2009 12:00 14,8 C 11,2 C 2,1 UV-I 1,7 C 61 % 81 % 50 % 1004,6 hPa 0,0 l/m 4,0 km/h (1 Bft) 0,10 h 7,0 km/h (2 Bft)
06.11.2009 13:00 15,3 C 12,2 C 1,7 UV-I 1,3 C 60 % 76 % 38 % 1004,7 hPa 0,0 l/m 5,4 km/h (1 Bft) 0,00 h 7,2 km/h (2 Bft)
06.11.2009 14:00 15,4 C 12,2 C 0,8 UV-I 0,2 C 58 % 73 % 5 % 1004,5 hPa 0,0 l/m 4,9 km/h (1 Bft) 0,00 h 5,9 km/h (2 Bft)
06.11.2009 15:00 15,2 C 12,0 C 0,0 UV-I 0,0 C 58 % 73 % 0 % 1004,4 hPa 0,0 l/m 4,6 km/h (1 Bft) 0,00 h 6,8 km/h (2 Bft)
06.11.2009 16:00 15,1 C 11,8 C 0,0 UV-I 0,0 C 58 % 73 % 0 % 1004,3 hPa 0,0 l/m 4,2 km/h (1 Bft) 0,00 h 5,2 km/h (1 Bft)
06.11.2009 17:00 14,9 C 11,4 C 0,0 UV-I 0,0 C 57 % 72 % 0 % 1004,0 hPa 0,0 l/m 3,8 km/h (1 Bft) 0,00 h 5,4 km/h (1 Bft)
06.11.2009 18:00 14,7 C 10,5 C 0,0 UV-I 0,0 C 58 % 77 % 0 % 1004,0 hPa 0,0 l/m 4,1 km/h (1 Bft) 0,00 h 7,5 km/h (2 Bft)
06.11.2009 19:00 14,6 C 10,0 C 0,0 UV-I 0,0 C 58 % 79 % 0 % 1003,7 hPa 0,0 l/m 4,3 km/h (1 Bft) 0,00 h 8,4 km/h (2 Bft)
06.11.2009 20:00 14,6 C 10,0 C 0,0 UV-I 0,0 C 58 % 79 % 0 % 1003,3 hPa 0,0 l/m 5,3 km/h (1 Bft) 0,00 h 12,3 km/h (3 Bft)
06.11.2009 21:00 14,5 C 10,0 C 0,0 UV-I 0,0 C 58 % 79 % 0 % 1002,8 hPa 0,0 l/m 4,4 km/h (1 Bft) 0,00 h 8,5 km/h (2 Bft)
06.11.2009 22:00 14,4 C 9,9 C 0,0 UV-I 0,0 C 58 % 80 % 0 % 1002,0 hPa 0,0 l/m 5,4 km/h (1 Bft) 0,00 h 9,7 km/h (2 Bft)
06.11.2009 23:00 14,5 C 9,9 C 0,0 UV-I 0,0 C 58 % 79 % 0 % 1001,2 hPa 0,0 l/m 5,7 km/h (1 Bft) 0,00 h 11,3 km/h (2 Bft)
07.11.2009 00:00 14,6 C 9,7 C 0,0 UV-I 0,0 C 57 % 78 % 0 % 1000,5 hPa 0,0 l/m 5,1 km/h (1 Bft) 0,00 h 9,4 km/h (2 Bft)
07.11.2009 01:00 14,6 C 9,6 C 0,0 UV-I 0,0 C 57 % 78 % 0 % 999,5 hPa 0,0 l/m 8,3 km/h (2 Bft) 0,00 h 13,8 km/h (3 Bft)
07.11.2009 02:00 14,7 C 9,4 C 0,0 UV-I 0,0 C 56 % 78 % 0 % 998,0 hPa 0,0 l/m 7,7 km/h (2 Bft) 0,00 h 11,1 km/h (2 Bft)
07.11.2009 03:00 14,7 C 9,3 C 0,0 UV-I 0,0 C 56 % 80 % 0 % 997,1 hPa 0,3 l/m 8,4 km/h (2 Bft) 0,00 h 13,0 km/h (3 Bft)
07.11.2009 04:00 14,6 C 8,7 C 0,0 UV-I 0,0 C 58 % 85 % 0 % 996,2 hPa 1,0 l/m 8,5 km/h (2 Bft) 0,00 h 13,6 km/h (3 Bft)
07.11.2009 05:00 14,4 C 8,2 C 0,0 UV-I 0,0 C 59 % 89 % 0 % 995,2 hPa 1,1 l/m 9,2 km/h (2 Bft) 0,00 h 15,0 km/h (3 Bft)
07.11.2009 06:00 14,4 C 8,1 C 0,0 UV-I 0,0 C 60 % 89 % 0 % 994,8 hPa 0,8 l/m 8,0 km/h (2 Bft) 0,00 h 12,0 km/h (2 Bft)
07.11.2009 07:00 14,4 C 7,8 C 0,0 UV-I 0,0 C 61 % 91 % 0 % 994,8 hPa 2,9 l/m 7,4 km/h (2 Bft) 0,00 h 10,4 km/h (2 Bft)
07.11.2009 08:00 14,3 C 7,6 C 0,0 UV-I 0,0 C 61 % 91 % 0 % 994,9 hPa 0,0 l/m 6,5 km/h (2 Bft) 0,00 h 9,8 km/h (2 Bft)
07.11.2009 09:00 14,3 C 7,6 C 0,0 UV-I 0,0 C 61 % 92 % 0 % 995,0 hPa 0,1 l/m 5,2 km/h (1 Bft) 0,00 h 9,6 km/h (2 Bft)
07.11.2009 10:00 14,2 C 7,8 C 0,0 UV-I 0,0 C 61 % 92 % 0 % 994,8 hPa 0,0 l/m 4,3 km/h (1 Bft) 0,00 h 7,7 km/h (2 Bft)
07.11.2009 11:00 14,4 C 8,1 C 0,1 UV-I 0,0 C 61 % 92 % 0 % 994,9 hPa 0,0 l/m 4,1 km/h (1 Bft) 0,00 h 7,3 km/h (2 Bft)
07.11.2009 12:00 14,7 C 8,8 C 1,2 UV-I 0,9 C 62 % 91 % 25 % 995,1 hPa 0,0 l/m 3,3 km/h (1 Bft) 0,00 h 6,6 km/h (2 Bft)
07.11.2009 13:00 15,2 C 10,3 C 1,6 UV-I 2,3 C 61 % 89 % 63 % 995,3 hPa 0,0 l/m 3,4 km/h (1 Bft) 0,20 h 5,5 km/h (1 Bft)
07.11.2009 14:00 15,6 C 10,8 C 0,4 UV-I 0,3 C 60 % 86 % 8 % 995,9 hPa 0,0 l/m 1,4 km/h (1 Bft) 0,00 h 3,8 km/h (1 Bft)
07.11.2009 15:00 15,6 C 10,7 C 0,2 UV-I 0,1 C 60 % 87 % 2 % 996,1 hPa 0,0 l/m 1,1 km/h (0 Bft) 0,00 h 2,9 km/h (1 Bft)
07.11.2009 16:00 15,4 C 10,2 C 0,0 UV-I 0,0 C 61 % 87 % 0 % 996,3 hPa 0,1 l/m 1,6 km/h (1 Bft) 0,00 h 2,4 km/h (1 Bft)
07.11.2009 17:00 15,0 C 9,1 C 0,0 UV-I 0,0 C 60 % 87 % 0 % 996,9 hPa 0,2 l/m 0,5 km/h (0 Bft) 0,00 h 1,2 km/h (1 Bft)
07.11.2009 18:00 14,5 C 8,3 C 0,0 UV-I 0,0 C 61 % 90 % 0 % 997,5 hPa 0,0 l/m 0,7 km/h (0 Bft) 0,00 h 2,0 km/h (1 Bft)
07.11.2009 19:00 14,3 C 8,0 C 0,0 UV-I 0,0 C 63 % 92 % 0 % 998,0 hPa 0,1 l/m 0,1 km/h (0 Bft) 0,00 h 0,5 km/h (0 Bft)
07.11.2009 20:00 14,4 C 7,6 C 0,0 UV-I 0,0 C 63 % 92 % 0 % 998,5 hPa 0,0 l/m 0,0 km/h (0 Bft) 0,00 h 0,1 km/h (0 Bft)
07.11.2009 21:00 14,3 C 7,1 C 0,0 UV-I 0,0 C 61 % 93 % 0 % 998,8 hPa 0,0 l/m 0,1 km/h (0 Bft) 0,00 h 0,7 km/h (0 Bft)
07.11.2009 22:00 14,3 C 6,7 C 0,0 UV-I 0,0 C 61 % 93 % 0 % 999,4 hPa 0,0 l/m 0,6 km/h (0 Bft) 0,00 h 2,0 km/h (1 Bft)
07.11.2009 23:00 14,2 C 6,5 C 0,0 UV-I 0,0 C 60 % 93 % 0 % 999,7 hPa 0,0 l/m 0,6 km/h (0 Bft) 0,00 h 2,1 km/h (1 Bft)
08.11.2009 00:00 14,1 C 5,8 C 0,0 UV-I 0,0 C 59 % 93 % 0 % 1000,4 hPa 0,0 l/m 0,2 km/h (0 Bft) 0,00 h 1,3 km/h (1 Bft)
08.11.2009 01:00 14,0 C 5,0 C 0,0 UV-I 0,0 C 58 % 93 % 0 % 1000,6 hPa 0,0 l/m 0,0 km/h (0 Bft) 0,00 h 0,0 km/h (0 Bft)
08.11.2009 02:00 13,9 C 4,4 C 0,0 UV-I 0,0 C 58 % 93 % 0 % 1000,8 hPa 0,0 l/m 0,0 km/h (0 Bft) 0,00 h 0,2 km/h (0 Bft)
08.11.2009 03:00 13,8 C 3,9 C 0,0 UV-I 0,0 C 57 % 94 % 0 % 1001,3 hPa 0,0 l/m 0,3 km/h (0 Bft) 0,00 h 1,0 km/h (0 Bft)
08.11.2009 04:00 13,6 C 3,2 C 0,0 UV-I 0,0 C 56 % 94 % 0 % 1001,4 hPa 0,0 l/m 0,0 km/h (0 Bft) 0,00 h 0,0 km/h (0 Bft)
08.11.2009 05:00 13,4 C 2,5 C 0,0 UV-I 0,0 C 55 % 94 % 0 % 1001,6 hPa 0,0 l/m 0,0 km/h (0 Bft) 0,00 h 0,4 km/h (0 Bft)
08.11.2009 06:00 13,3 C 2,3 C 0,0 UV-I 0,0 C 55 % 94 % 0 % 1001,9 hPa 0,0 l/m 0,0 km/h (0 Bft) 0,00 h 0,2 km/h (0 Bft)
08.11.2009 07:00 13,2 C 2,1 C 0,0 UV-I 0,0 C 55 % 95 % 0 % 1002,3 hPa 0,0 l/m 0,0 km/h (0 Bft) 0,00 h 0,2 km/h (0 Bft)
08.11.2009 08:00 13,2 C 1,9 C 0,0 UV-I 0,0 C 55 % 95 % 0 % 1003,1 hPa 0,0 l/m 0,0 km/h (0 Bft) 0,00 h 0,0 km/h (0 Bft)
08.11.2009 09:00 13,3 C 2,8 C 0,3 UV-I 4,0 C 55 % 96 % 70 % 1003,7 hPa 0,0 l/m 0,1 km/h (0 Bft) 0,60 h 0,6 km/h (0 Bft)
08.11.2009 10:00 13,6 C 5,2 C 0,5 UV-I 8,3 C 56 % 96 % 100 % 1004,2 hPa 0,0 l/m 0,7 km/h (0 Bft) 0,83 h 2,5 km/h (1 Bft)
08.11.2009 11:00 14,1 C 8,3 C 0,9 UV-I 9,6 C 56 % 94 % 100 % 1005,0 hPa 0,0 l/m 0,1 km/h (0 Bft) 1,00 h 0,3 km/h (0 Bft)
08.11.2009 12:00 14,9 C 10,8 C 1,1 UV-I 8,3 C 56 % 83 % 100 % 1005,4 hPa 0,0 l/m 0,5 km/h (0 Bft) 0,97 h 1,9 km/h (1 Bft)
08.11.2009 13:00 15,7 C 12,2 C 1,3 UV-I 5,4 C 55 % 75 % 100 % 1006,0 hPa 0,0 l/m 0,4 km/h (0 Bft) 0,90 h 1,2 km/h (1 Bft)
08.11.2009 14:00 16,6 C 12,3 C 1,3 UV-I 4,2 C 53 % 74 % 94 % 1008,0 hPa 0,0 l/m 0,5 km/h (0 Bft) 0,90 h 1,5 km/h (1 Bft)
08.11.2009 15:00 16,8 C 11,2 C 0,6 UV-I 1,3 C 52 % 76 % 37 % 1007,3 hPa 0,0 l/m 3,1 km/h (1 Bft) 0,43 h 5,2 km/h (1 Bft)
08.11.2009 16:00 16,5 C 10,0 C 0,1 UV-I 0,0 C 53 % 80 % 0 % 1007,2 hPa 0,0 l/m 2,6 km/h (1 Bft) 0,00 h 4,0 km/h (1 Bft)
08.11.2009 17:00 16,1 C 9,1 C 0,0 UV-I 0,0 C 53 % 82 % 0 % 1007,6 hPa 0,0 l/m 2,5 km/h (1 Bft) 0,00 h 4,1 km/h (1 Bft)
08.11.2009 18:00 15,8 C 8,6 C 0,0 UV-I 0,0 C 54 % 85 % 0 % 1008,5 hPa 0,0 l/m 2,8 km/h (1 Bft) 0,00 h 5,2 km/h (1 Bft)
08.11.2009 19:00 15,8 C 7,9 C 0,0 UV-I 0,0 C 55 % 88 % 0 % 1009,0 hPa 0,0 l/m 4,0 km/h (1 Bft) 0,00 h 6,4 km/h (2 Bft)
08.11.2009 20:00 15,8 C 7,2 C 0,0 UV-I 0,0 C 55 % 90 % 0 % 1009,3 hPa 0,0 l/m 3,9 km/h (1 Bft) 0,00 h 6,1 km/h (2 Bft)
08.11.2009 21:00 15,8 C 7,1 C 0,0 UV-I 0,0 C 56 % 91 % 0 % 1009,8 hPa 0,0 l/m 2,3 km/h (1 Bft) 0,00 h 3,9 km/h (1 Bft)
08.11.2009 22:00 15,7 C 7,0 C 0,0 UV-I 0,0 C 56 % 92 % 0 % 1010,2 hPa 0,0 l/m 2,5 km/h (1 Bft) 0,00 h 4,3 km/h (1 Bft)
08.11.2009 23:00 15,8 C 7,1 C 0,0 UV-I 0,0 C 56 % 93 % 0 % 1010,6 hPa 0,0 l/m 4,3 km/h (1 Bft) 0,00 h 7,3 km/h (2 Bft)
Min-Datum _ 08.11.09 08.11.09 02.11.09 02.11.09 03.11.09 03.11.09 02.11.09 04.11.09 - 02.11.09 - 02.11.09
_ Min-Zeit 07:12 08:12 00:00 00:00 14:04 13:40 00:00 03:36 - 03:20 - 00:00
Minimum _ 13,1 C 1,8 C 0,0 UV-I 0,0 C 51 % 64 % 0 % 982,1 hPa - 0,0 km/h (0 Bft) - 0,0 km/h (0 Bft)
Max-Datum _ 02.11.09 03.11.09 03.11.09 08.11.09 02.11.09 08.11.09 02.11.09 08.11.09 03.11.09 03.11.09 02.11.09 03.11.09
_ Max-Zeit 15:18 13:18 11:40 11:12 00:24 10:04 11:18 23:54 22:50 18:02 11:02 16:52
Maximum _ 17,0 C 13,3 C 3,6 UV-I 10,3 C 72 % 97 % 100 % 1010,8 hPa 3,6 l/m 14,9 km/h
NO (3 Bft)
0,03 h 38,5 km/h
NO (5 Bft)
Durchschnitt _ 14,8 C 8,8 C 0,2 UV-I 0,5 C 60 % 87 % 10 % 996,8 hPa #30,3 l/m 3,5 km/h (1 Bft) #10:28 h 5,5 km/h (1 Bft)
© 2012 W. Hausmann